Time;durP1;ratioP1;P1;durP2;ratioP2;P2;SDS_P1;SDS_P2;PMS_P1;PMS_P2;Temp;Humidity;BMP_temperature;BMP_pressure;BME280_temperature;BME280_humidity;BME280_pressure;Samples;Min_cycle;Max_cycle;Signal;HPM_P1;HPM_P2
2022/08/18 00:04:50;;;;;;;11.30;5.25;;;;;;;;;;10498083;28;20044;-74
2022/08/18 00:09:57;;;;;;;11.90;5.68;;;;;;;;;;10500410;28;20068;-71
2022/08/18 00:15:03;;;;;;;9.85;6.00;;;;;;;;;;10501037;28;20049;-74
2022/08/18 00:20:13;;;;;;;11.00;6.28;;;;;;;;;;10501179;28;20028;-74
2022/08/18 00:25:18;;;;;;;9.68;5.55;;;;;;;;;;10500811;28;20032;-73
2022/08/18 00:30:22;;;;;;;9.85;6.15;;;;;;;;;;10492819;28;20067;-74
2022/08/18 00:35:26;;;;;;;8.70;4.53;;;;;;;;;;10499947;28;20055;-73
2022/08/18 00:40:33;;;;;;;8.93;4.97;;;;;;;;;;10509170;28;20041;-73
2022/08/18 00:45:41;;;;;;;8.50;3.78;;;;;;;;;;10503952;28;20136;-72
2022/08/18 00:50:46;;;;;;;9.45;4.53;;;;;;;;;;10503940;28;20037;-72
2022/08/18 00:55:49;;;;;;;8.13;5.30;;;;;;;;;;10506774;28;20044;-72
2022/08/18 01:00:57;;;;;;;9.85;5.63;;;;;;;;;;10505992;28;20029;-72
2022/08/18 01:06:02;;;;;;;7.30;4.07;;;;;;;;;;10509565;28;20040;-73
2022/08/18 01:11:05;;;;;;;7.90;4.30;;;;;;;;;;10508045;28;20044;-72
2022/08/18 01:26:52;;;;;;;5.70;3.50;;;;;;;;;;10505624;28;20408;-72
2022/08/18 01:31:55;;;;;;;8.07;4.30;;;;;;;;;;10507732;28;20094;-72
2022/08/18 01:36:58;;;;;;;8.35;5.30;;;;;;;;;;10501449;28;20060;-73
2022/08/18 01:42:03;;;;;;;9.57;4.65;;;;;;;;;;10503922;28;20056;-72
2022/08/18 01:47:06;;;;;;;4.75;2.47;;;;;;;;;;10507428;28;20089;-73
2022/08/18 01:52:09;;;;;;;6.32;3.05;;;;;;;;;;10504592;28;20100;-73
2022/08/18 01:57:14;;;;;;;7.55;4.60;;;;;;;;;;10502708;28;20040;-72
2022/08/18 02:02:19;;;;;;;6.93;4.65;;;;;;;;;;10503287;28;20068;-72
2022/08/18 02:07:21;;;;;;;6.78;3.80;;;;;;;;;;10504183;28;20141;-72
2022/08/18 02:12:37;;;;;;;8.90;4.78;;;;;;;;;;10503811;28;20041;-73
2022/08/18 02:17:40;;;;;;;9.68;4.93;;;;;;;;;;10496950;28;20056;-72
2022/08/18 02:22:44;;;;;;;8.52;4.00;;;;;;;;;;10500400;28;20056;-73
2022/08/18 02:27:48;;;;;;;9.88;4.78;;;;;;;;;;10503669;28;20098;-72
2022/08/18 02:32:51;;;;;;;5.38;3.00;;;;;;;;;;10501302;28;20483;-73
2022/08/18 02:37:54;;;;;;;8.02;4.40;;;;;;;;;;10500092;28;20037;-72
2022/08/18 02:42:58;;;;;;;4.43;2.40;;;;;;;;;;10521197;28;20036;-73
2022/08/18 02:48:00;;;;;;;9.18;3.90;;;;;;;;;;10497244;28;20053;-73
2022/08/18 02:53:03;;;;;;;7.50;4.10;;;;;;;;;;10506060;28;20048;-73
2022/08/18 02:58:08;;;;;;;8.85;4.65;;;;;;;;;;10495247;28;20413;-73
2022/08/18 03:03:12;;;;;;;6.53;3.95;;;;;;;;;;10496233;28;20060;-72
2022/08/18 03:08:14;;;;;;;7.60;4.15;;;;;;;;;;10502352;28;20110;-72
2022/08/18 03:13:19;;;;;;;7.17;3.63;;;;;;;;;;10500915;28;20041;-72
2022/08/18 03:18:22;;;;;;;7.57;4.63;;;;;;;;;;10501517;28;20306;-73
2022/08/18 03:23:25;;;;;;;5.75;3.42;;;;;;;;;;10501939;28;20033;-73
2022/08/18 03:28:33;;;;;;;6.65;3.90;;;;;;;;;;10500685;28;20045;-72
2022/08/18 03:33:36;;;;;;;7.70;3.95;;;;;;;;;;10503858;28;20044;-72
2022/08/18 03:38:39;;;;;;;6.32;3.60;;;;;;;;;;10498318;28;20052;-71
2022/08/18 03:43:43;;;;;;;7.95;4.10;;;;;;;;;;10504073;28;20048;-71
2022/08/18 03:48:53;;;;;;;7.15;4.00;;;;;;;;;;10503180;28;20301;-71
2022/08/18 03:53:59;;;;;;;7.40;4.15;;;;;;;;;;10498260;28;20048;-74
2022/08/18 03:59:04;;;;;;;6.82;4.15;;;;;;;;;;10499072;28;20080;-72
2022/08/18 04:04:09;;;;;;;9.32;4.15;;;;;;;;;;10500927;28;20071;-73
2022/08/18 04:09:13;;;;;;;7.40;4.22;;;;;;;;;;10506106;28;20040;-73
2022/08/18 04:14:18;;;;;;;7.95;4.43;;;;;;;;;;10507308;28;20043;-73
2022/08/18 04:19:22;;;;;;;7.60;4.32;;;;;;;;;;10511174;28;20067;-71
2022/08/18 04:24:30;;;;;;;7.95;4.45;;;;;;;;;;10506052;28;20104;-73
2022/08/18 04:29:36;;;;;;;8.55;4.60;;;;;;;;;;10502360;28;20086;-71
2022/08/18 04:34:41;;;;;;;8.70;4.55;;;;;;;;;;10506943;28;20075;-71
2022/08/18 04:39:44;;;;;;;8.85;4.70;;;;;;;;;;10504561;28;20045;-73
2022/08/18 04:44:50;;;;;;;8.27;4.75;;;;;;;;;;10505380;28;20032;-74
2022/08/18 04:49:53;;;;;;;9.07;4.90;;;;;;;;;;10506400;28;20040;-72
2022/08/18 04:54:56;;;;;;;9.48;4.75;;;;;;;;;;10508206;28;20334;-72
2022/08/18 04:59:59;;;;;;;;;;;;;;;;;;10508563;28;20136;-72
2022/08/18 05:05:03;;;;;;;9.27;4.78;;;;;;;;;;10509609;28;19956;-72
2022/08/18 05:10:08;;;;;;;9.20;4.40;;;;;;;;;;10507541;28;20068;-71
2022/08/18 05:15:16;;;;;;;9.43;4.97;;;;;;;;;;10502264;28;20040;-72
2022/08/18 05:20:22;;;;;;;9.18;4.93;;;;;;;;;;10504481;28;20032;-72
2022/08/18 05:25:24;;;;;;;8.45;4.45;;;;;;;;;;10500002;28;20052;-72
2022/08/18 05:30:28;;;;;;;10.23;4.65;;;;;;;;;;10492966;28;20098;-72
2022/08/18 05:35:34;;;;;;;8.60;3.85;;;;;;;;;;10497303;28;20433;-73
2022/08/18 05:40:37;;;;;;;8.38;4.50;;;;;;;;;;10504414;28;20041;-72
2022/08/18 05:45:41;;;;;;;9.45;5.93;;;;;;;;;;10497205;28;20247;-73
2022/08/18 05:50:45;;;;;;;7.25;4.05;;;;;;;;;;10496483;28;20096;-72
2022/08/18 06:01:17;;;;;;;7.18;4.10;;;;;;;;;;10496258;28;20036;-72
2022/08/18 06:06:24;;;;;;;7.40;3.83;;;;;;;;;;10501761;28;20060;-72
2022/08/18 06:11:27;;;;;;;5.82;3.53;;;;;;;;;;10507199;28;20063;-72
2022/08/18 06:16:38;;;;;;;7.30;4.55;;;;;;;;;;10507387;28;20056;-71
2022/08/18 06:21:47;;;;;;;8.02;4.18;;;;;;;;;;10505975;28;20033;-72
2022/08/18 06:26:52;;;;;;;6.68;4.43;;;;;;;;;;10496218;28;20127;-72
2022/08/18 06:32:04;;;;;;;8.38;4.30;;;;;;;;;;10494252;28;20044;-72
2022/08/18 06:37:10;;;;;;;7.28;4.00;;;;;;;;;;10497522;28;20036;-72
2022/08/18 06:42:16;;;;;;;10.65;4.65;;;;;;;;;;10499851;28;20051;-72
2022/08/18 06:47:25;;;;;;;7.18;4.32;;;;;;;;;;10497921;28;20052;-72
2022/08/18 06:52:30;;;;;;;8.70;4.30;;;;;;;;;;10499081;28;20086;-72
2022/08/18 06:57:35;;;;;;;8.85;4.90;;;;;;;;;;10499362;28;20048;-71
2022/08/18 07:02:45;;;;;;;8.75;4.85;;;;;;;;;;10499701;28;20037;-72
2022/08/18 07:08:03;;;;;;;8.73;4.70;;;;;;;;;;10497434;28;20059;-72
2022/08/18 07:13:17;;;;;;;8.63;4.93;;;;;;;;;;10497028;28;20068;-72
2022/08/18 07:18:24;;;;;;;7.68;4.63;;;;;;;;;;10498117;28;20101;-72
2022/08/18 07:23:30;;;;;;;15.50;8.50;;;;;;;;;;10493403;28;20064;-72
2022/08/18 07:28:40;;;;;;;10.70;4.75;;;;;;;;;;10491519;28;20045;-72
2022/08/18 07:33:46;;;;;;;10.30;5.03;;;;;;;;;;10495132;28;20037;-72
2022/08/18 07:38:53;;;;;;;9.98;4.90;;;;;;;;;;10503826;28;20055;-72
2022/08/18 07:43:59;;;;;;;10.02;5.05;;;;;;;;;;10498241;28;20060;-73
2022/08/18 07:49:03;;;;;;;6.75;4.78;;;;;;;;;;10495281;28;20075;-72
2022/08/18 07:54:11;;;;;;;13.05;7.35;;;;;;;;;;10491299;28;20051;-73
2022/08/18 07:59:38;;;;;;;8.00;5.55;;;;;;;;;;10490587;28;20100;-72
2022/08/18 08:04:46;;;;;;;10.90;7.72;;;;;;;;;;10493545;28;20039;-73
2022/08/18 08:09:56;;;;;;;9.80;6.60;;;;;;;;;;10492889;28;20040;-72
2022/08/18 08:15:03;;;;;;;11.68;7.18;;;;;;;;;;10494579;28;20040;-73
2022/08/18 08:20:14;;;;;;;12.13;9.18;;;;;;;;;;10490330;28;20363;-73
2022/08/18 08:25:20;;;;;;;9.10;5.82;;;;;;;;;;10506422;28;20083;-73
2022/08/18 08:30:46;;;;;;;10.13;6.28;;;;;;;;;;10492730;28;20104;-73
2022/08/18 08:35:53;;;;;;;9.32;5.85;;;;;;;;;;10495113;28;20032;-73
2022/08/18 08:41:02;;;;;;;9.45;5.80;;;;;;;;;;10497872;28;20051;-72
2022/08/18 08:46:09;;;;;;;8.25;5.97;;;;;;;;;;10497215;28;20194;-72
2022/08/18 08:51:22;;;;;;;6.78;5.43;;;;;;;;;;10497804;28;20036;-72
2022/08/18 08:56:33;;;;;;;6.93;5.82;;;;;;;;;;10491846;28;20447;-73
2022/08/18 09:01:38;;;;;;;8.55;6.10;;;;;;;;;;10497722;28;20037;-74
2022/08/18 09:06:45;;;;;;;10.02;5.35;;;;;;;;;;10494154;28;20112;-74
2022/08/18 09:12:03;;;;;;;8.88;6.10;;;;;;;;;;10496732;28;20047;-73
2022/08/18 09:17:15;;;;;;;10.15;6.22;;;;;;;;;;10494752;28;20045;-72
2022/08/18 09:22:21;;;;;;;7.28;6.10;;;;;;;;;;10491571;28;20082;-73
2022/08/18 09:27:33;;;;;;;7.10;6.20;;;;;;;;;;10497129;28;20138;-72
2022/08/18 09:33:01;;;;;;;8.45;5.88;;;;;;;;;;10511666;28;20040;-72
2022/08/18 09:43:53;;;;;;;10.38;6.00;;;;;;;;;;10498413;28;20051;-72
2022/08/18 09:49:25;;;;;;;7.32;6.43;;;;;;;;;;10497356;28;20040;-71
2022/08/18 09:54:29;;;;;;;7.65;5.72;;;;;;;;;;10497234;28;20563;-73
2022/08/18 09:59:53;;;;;;;8.35;6.38;;;;;;;;;;10500549;28;20132;-74
2022/08/18 10:05:22;;;;;;;8.27;5.85;;;;;;;;;;10505026;28;20040;-73
2022/08/18 10:10:27;;;;;;;9.10;6.10;;;;;;;;;;10498753;28;20580;-74
2022/08/18 10:15:59;;;;;;;8.75;7.50;;;;;;;;;;10517306;28;20095;-74
2022/08/18 10:21:20;;;;;;;9.82;6.32;;;;;;;;;;10501371;28;20120;-73
2022/08/18 10:26:44;;;;;;;7.38;5.97;;;;;;;;;;10498329;28;20062;-74
2022/08/18 10:32:11;;;;;;;10.30;5.80;;;;;;;;;;10496503;28;20041;-73
2022/08/18 10:37:18;;;;;;;7.85;6.05;;;;;;;;;;10496148;28;20056;-73
2022/08/18 10:42:29;;;;;;;7.93;6.65;;;;;;;;;;10503371;28;20698;-75
2022/08/18 10:47:33;;;;;;;6.93;5.72;;;;;;;;;;10492672;28;20036;-75
2022/08/18 10:52:58;;;;;;;9.95;6.32;;;;;;;;;;10497817;28;20075;-74
2022/08/18 10:58:25;;;;;;;7.65;5.78;;;;;;;;;;10499003;28;20091;-74
2022/08/18 11:03:59;;;;;;;9.57;7.00;;;;;;;;;;10491113;28;20107;-74
2022/08/18 11:09:24;;;;;;;9.73;6.03;;;;;;;;;;10495333;28;20048;-74
2022/08/18 11:14:41;;;;;;;7.85;6.50;;;;;;;;;;10494230;28;20500;-72
2022/08/18 11:19:45;;;;;;;10.55;6.10;;;;;;;;;;10488803;28;20064;-72
2022/08/18 11:24:54;;;;;;;8.30;6.75;;;;;;;;;;10491234;28;20044;-72
2022/08/18 11:29:59;;;;;;;7.13;5.72;;;;;;;;;;10508346;28;20044;-72
2022/08/18 11:35:04;;;;;;;9.15;6.10;;;;;;;;;;10491399;28;20099;-73
2022/08/18 11:40:20;;;;;;;8.05;5.72;;;;;;;;;;10492446;28;20041;-73
2022/08/18 11:45:52;;;;;;;7.38;6.07;;;;;;;;;;10495515;28;20042;-72
2022/08/18 11:51:01;;;;;;;7.05;5.88;;;;;;;;;;10496556;28;20559;-73
2022/08/18 11:56:08;;;;;;;9.38;6.43;;;;;;;;;;10497921;28;20040;-72
2022/08/18 12:01:33;;;;;;;8.05;5.95;;;;;;;;;;10486800;28;20045;-74
2022/08/18 12:06:53;;;;;;;9.23;5.68;;;;;;;;;;10493793;28;20454;-73
2022/08/18 12:11:59;;;;;;;7.18;6.15;;;;;;;;;;10491981;28;20041;-73
2022/08/18 12:17:07;;;;;;;7.30;6.20;;;;;;;;;;10497245;28;20070;-73
2022/08/18 12:22:14;;;;;;;9.88;6.30;;;;;;;;;;10492450;28;20057;-73
2022/08/18 12:27:21;;;;;;;8.27;5.88;;;;;;;;;;10488754;28;20040;-72
2022/08/18 12:32:25;;;;;;;7.95;5.63;;;;;;;;;;10517494;28;20143;-74
2022/08/18 12:37:48;;;;;;;7.35;5.78;;;;;;;;;;10519433;28;20120;-73
2022/08/18 12:43:12;;;;;;;7.25;5.65;;;;;;;;;;10507881;28;20091;-73
2022/08/18 12:48:15;;;;;;;8.13;6.20;;;;;;;;;;10494620;28;20044;-73
2022/08/18 12:53:17;;;;;;;8.27;6.50;;;;;;;;;;10498405;28;20037;-72
2022/08/18 12:58:33;;;;;;;9.13;5.97;;;;;;;;;;10495055;28;20282;-73
2022/08/18 13:03:58;;;;;;;10.18;6.43;;;;;;;;;;10500642;28;20056;-72
2022/08/18 13:09:21;;;;;;;8.70;5.38;;;;;;;;;;10503781;28;20057;-71
2022/08/18 13:14:46;;;;;;;7.93;6.07;;;;;;;;;;10492945;28;20052;-71
2022/08/18 13:19:48;;;;;;;8.82;5.85;;;;;;;;;;10495379;28;20057;-72
2022/08/18 13:24:51;;;;;;;9.98;6.32;;;;;;;;;;10502131;28;20063;-74
2022/08/18 13:29:55;;;;;;;8.18;5.82;;;;;;;;;;10502598;28;20052;-72
2022/08/18 13:34:58;;;;;;;7.55;5.95;;;;;;;;;;10499842;28;20071;-73
2022/08/18 13:40:05;;;;;;;8.73;6.00;;;;;;;;;;10502162;28;20045;-72
2022/08/18 13:45:13;;;;;;;9.90;6.18;;;;;;;;;;10496459;28;20036;-72
2022/08/18 13:50:27;;;;;;;7.28;5.28;;;;;;;;;;10494934;28;20071;-70
2022/08/18 13:55:31;;;;;;;10.60;6.38;;;;;;;;;;10491191;28;20044;-72
2022/08/18 14:00:35;;;;;;;9.55;6.03;;;;;;;;;;10495534;28;20048;-73
2022/08/18 14:05:38;;;;;;;7.95;6.00;;;;;;;;;;10489422;28;20116;-72
2022/08/18 14:10:55;;;;;;;10.98;6.15;;;;;;;;;;10489920;28;20045;-71
2022/08/18 14:16:00;;;;;;;10.13;6.75;;;;;;;;;;10488384;28;20040;-72
2022/08/18 14:31:47;;;;;;;12.18;6.70;;;;;;;;;;10491624;28;20142;-72
2022/08/18 14:36:54;;;;;;;10.93;6.35;;;;;;;;;;10495337;28;20438;-75
2022/08/18 14:41:58;;;;;;;9.27;6.32;;;;;;;;;;10494314;28;20413;-75
2022/08/18 14:47:06;;;;;;;9.65;6.80;;;;;;;;;;10492574;28;20045;-74
2022/08/18 14:52:10;;;;;;;10.02;6.45;;;;;;;;;;10496271;28;20040;-74
2022/08/18 14:57:16;;;;;;;10.85;6.30;;;;;;;;;;10493656;28;20051;-74
2022/08/18 15:02:20;;;;;;;11.68;5.90;;;;;;;;;;10493587;28;20045;-74
2022/08/18 15:07:23;;;;;;;12.02;6.65;;;;;;;;;;10495542;28;20415;-73
2022/08/18 15:12:27;;;;;;;9.25;5.68;;;;;;;;;;10492038;28;20080;-74
2022/08/18 15:17:32;;;;;;;8.63;5.72;;;;;;;;;;10491231;28;20128;-75
2022/08/18 15:28:00;;;;;;;10.18;6.47;;;;;;;;;;10477934;28;20398;-74
2022/08/18 15:33:06;;;;;;;12.38;6.70;;;;;;;;;;10493777;28;20051;-75
2022/08/18 15:38:11;;;;;;;8.77;5.85;;;;;;;;;;10488098;28;20053;-76
2022/08/18 15:43:14;;;;;;;12.38;7.18;;;;;;;;;;10497393;28;20045;-73
2022/08/18 15:48:22;;;;;;;11.93;6.57;;;;;;;;;;10495432;28;20079;-75
2022/08/18 15:53:25;;;;;;;10.10;6.60;;;;;;;;;;10500415;28;20079;-74
2022/08/18 15:58:31;;;;;;;12.85;7.95;;;;;;;;;;10500203;28;20064;-74
2022/08/18 16:03:35;;;;;;;18.08;10.90;;;;;;;;;;10500744;28;20033;-75
2022/08/18 16:08:40;;;;;;;10.93;6.75;;;;;;;;;;10506040;28;20063;-75
2022/08/18 16:13:43;;;;;;;18.02;8.48;;;;;;;;;;10501464;28;20056;-75
2022/08/18 16:18:47;;;;;;;12.15;6.88;;;;;;;;;;10501140;28;20040;-75
2022/08/18 16:23:51;;;;;;;14.10;8.15;;;;;;;;;;10498176;28;20047;-75
2022/08/18 16:28:54;;;;;;;16.10;8.32;;;;;;;;;;10497260;28;20071;-76
2022/08/18 16:33:59;;;;;;;12.88;7.80;;;;;;;;;;10500410;28;20045;-71
2022/08/18 16:39:02;;;;;;;9.70;6.55;;;;;;;;;;10498865;28;20064;-72
2022/08/18 16:44:08;;;;;;;15.18;9.20;;;;;;;;;;10504829;28;20071;-73
2022/08/18 16:49:12;;;;;;;14.10;8.57;;;;;;;;;;10507466;28;20205;-72
2022/08/18 16:54:15;;;;;;;14.32;9.38;;;;;;;;;;10501215;28;20040;-72
2022/08/18 17:04:40;;;;;;;12.68;7.78;;;;;;;;;;10496497;28;20384;-72
2022/08/18 17:09:42;;;;;;;12.25;8.27;;;;;;;;;;10501269;28;20186;-74
2022/08/18 17:14:45;;;;;;;;;;;;;;;;;;10504075;28;20060;-72
2022/08/18 17:19:52;;;;;;;10.70;6.75;;;;;;;;;;10494879;28;19925;-72
2022/08/18 17:24:58;;;;;;;10.57;7.57;;;;;;;;;;10498015;28;20064;-72
2022/08/18 17:30:04;;;;;;;12.93;7.18;;;;;;;;;;10493351;28;20552;-73
2022/08/18 17:35:12;;;;;;;5.85;3.58;;;;;;;;;;10496372;28;20112;-78
2022/08/18 17:40:17;;;;;;;4.75;2.90;;;;;;;;;;10493563;28;20037;-73
2022/08/18 17:45:23;;;;;;;9.00;3.53;;;;;;;;;;10492775;28;20049;-73
2022/08/18 17:55:51;;;;;;;15.77;7.97;;;;;;;;;;10491693;28;20162;-74
2022/08/18 18:00:54;;;;;;;17.05;8.82;;;;;;;;;;10489752;28;20481;-75
2022/08/18 18:06:02;;;;;;;13.77;6.97;;;;;;;;;;10490189;28;20041;-74
2022/08/18 18:11:10;;;;;;;14.95;8.25;;;;;;;;;;10501107;28;20037;-74
2022/08/18 18:16:24;;;;;;;8.20;4.35;;;;;;;;;;10498539;28;20033;-73
2022/08/18 18:21:29;;;;;;;6.60;3.60;;;;;;;;;;10500487;28;20040;-73
2022/08/18 18:26:52;;;;;;;3.83;2.00;;;;;;;;;;10495528;28;20040;-72
2022/08/18 18:31:56;;;;;;;1.95;1.45;;;;;;;;;;10494155;28;20052;-72
2022/08/18 18:37:02;;;;;;;2.08;1.50;;;;;;;;;;10493672;28;20040;-72
2022/08/18 18:42:16;;;;;;;3.20;2.17;;;;;;;;;;10501578;28;20045;-72
2022/08/18 18:47:28;;;;;;;2.92;1.90;;;;;;;;;;10505330;28;20390;-74
2022/08/18 18:52:36;;;;;;;1.80;1.25;;;;;;;;;;10502568;28;20037;-72
2022/08/18 18:57:41;;;;;;;4.95;2.70;;;;;;;;;;10497052;28;20047;-72
2022/08/18 19:02:49;;;;;;;3.78;1.70;;;;;;;;;;10497719;28;20040;-72
2022/08/18 19:08:05;;;;;;;3.08;1.88;;;;;;;;;;10496042;28;20067;-72
2022/08/18 19:13:14;;;;;;;4.10;2.42;;;;;;;;;;10499317;28;20044;-72
2022/08/18 19:18:38;;;;;;;5.60;2.15;;;;;;;;;;10492077;28;20090;-74
2022/08/18 19:23:44;;;;;;;3.97;2.00;;;;;;;;;;10493177;28;20040;-72
2022/08/18 19:28:48;;;;;;;5.35;2.60;;;;;;;;;;10491548;28;20060;-72
2022/08/18 19:34:12;;;;;;;3.05;1.90;;;;;;;;;;10495988;28;20084;-73
2022/08/18 19:39:23;;;;;;;3.83;1.85;;;;;;;;;;10498305;28;20037;-72
2022/08/18 19:44:32;;;;;;;1.98;1.20;;;;;;;;;;10490674;28;20055;-73
2022/08/18 19:49:38;;;;;;;4.25;1.70;;;;;;;;;;10498569;28;20115;-74
2022/08/18 19:54:53;;;;;;;3.25;1.50;;;;;;;;;;10491874;28;20053;-74
2022/08/18 20:00:09;;;;;;;5.30;2.28;;;;;;;;;;10495230;28;20036;-75
2022/08/18 20:05:19;;;;;;;2.95;1.85;;;;;;;;;;10495798;28;20041;-75
2022/08/18 20:10:31;;;;;;;3.45;1.90;;;;;;;;;;10488343;28;20060;-76
2022/08/18 20:15:34;;;;;;;4.03;2.20;;;;;;;;;;10490343;28;20036;-77
2022/08/18 20:20:37;;;;;;;7.13;2.70;;;;;;;;;;10492973;28;20036;-75
2022/08/18 20:25:45;;;;;;;7.50;4.03;;;;;;;;;;10491660;28;20049;-76
2022/08/18 20:30:52;;;;;;;7.13;3.92;;;;;;;;;;10495714;28;20057;-77
2022/08/18 20:36:01;;;;;;;10.02;5.85;;;;;;;;;;10492410;28;20052;-75
2022/08/18 20:41:40;;;;;;;13.13;6.40;;;;;;;;;;10494952;28;20068;-75
2022/08/18 20:46:49;;;;;;;8.98;4.88;;;;;;;;;;10494834;28;20075;-74
2022/08/18 20:51:56;;;;;;;11.23;5.38;;;;;;;;;;10402658;23;20434;-76
2022/08/18 20:57:01;;;;;;;13.48;7.05;;;;;;;;;;10363303;28;20116;-76
2022/08/18 21:02:07;;;;;;;14.90;7.13;;;;;;;;;;10365400;28;20073;-76
2022/08/18 21:07:15;;;;;;;17.00;8.73;;;;;;;;;;10360225;28;20258;-75
2022/08/18 21:12:22;;;;;;;17.15;8.40;;;;;;;;;;10365789;28;20583;-77
2022/08/18 21:17:29;;;;;;;15.18;6.95;;;;;;;;;;10356171;28;20389;-76
2022/08/18 21:22:32;;;;;;;19.02;8.35;;;;;;;;;;10359591;28;20486;-76
2022/08/18 21:27:36;;;;;;;;;;;;;;;;;;10358003;28;20037;-76
2022/08/18 21:32:40;;;;;;;;;;;;;;;;;;10352651;28;19968;-76
2022/08/18 21:37:54;;;;;;;20.45;8.80;;;;;;;;;;10357102;28;19965;-76
2022/08/18 21:42:58;;;;;;;10.70;5.38;;;;;;;;;;10352401;28;20443;-76
2022/08/18 21:48:04;;;;;;;20.23;10.15;;;;;;;;;;10350044;28;20062;-77
2022/08/18 21:53:17;;;;;;;13.63;6.88;;;;;;;;;;10349912;28;20125;-77
2022/08/18 21:58:24;;;;;;;19.65;9.10;;;;;;;;;;10351721;28;20050;-77
2022/08/18 22:03:36;;;;;;;17.13;9.15;;;;;;;;;;10354903;28;20082;-76
2022/08/18 22:08:47;;;;;;;17.02;8.70;;;;;;;;;;10348181;28;20061;-76
2022/08/18 22:14:01;;;;;;;18.53;9.00;;;;;;;;;;10354706;28;20104;-76
2022/08/18 22:19:06;;;;;;;15.40;7.40;;;;;;;;;;10354091;28;20046;-76
2022/08/18 22:24:19;;;;;;;16.17;8.55;;;;;;;;;;10349381;28;20045;-76
2022/08/18 22:29:25;;;;;;;11.83;6.40;;;;;;;;;;10352603;28;20470;-76
2022/08/18 22:34:30;;;;;;;18.85;9.38;;;;;;;;;;10346611;28;20125;-75
2022/08/18 22:39:36;;;;;;;17.58;8.55;;;;;;;;;;10353286;28;20135;-75
2022/08/18 22:44:40;;;;;;;12.32;6.50;;;;;;;;;;10352144;28;20044;-77
2022/08/18 22:49:44;;;;;;;10.00;5.15;;;;;;;;;;10344196;28;20121;-75
2022/08/18 22:54:46;;;;;;;;;;;;;;;;;;10357658;28;20130;-75
2022/08/18 22:59:53;;;;;;;6.03;3.22;;;;;;;;;;10361507;28;19929;-75
2022/08/18 23:05:00;;;;;;;7.68;4.10;;;;;;;;;;10362843;28;20042;-75
2022/08/18 23:10:03;;;;;;;6.45;3.80;;;;;;;;;;10358179;28;20044;-76
2022/08/18 23:15:17;;;;;;;6.77;3.60;;;;;;;;;;10358019;28;20065;-77
2022/08/18 23:20:20;;;;;;;6.03;2.28;;;;;;;;;;10363199;28;20065;-77
2022/08/18 23:25:29;;;;;;;5.88;3.60;;;;;;;;;;10357545;28;20041;-76
2022/08/18 23:30:33;;;;;;;5.80;3.10;;;;;;;;;;10359758;28;20136;-77
2022/08/18 23:35:36;;;;;;;4.93;2.92;;;;;;;;;;10360741;28;20186;-77
2022/08/18 23:40:43;;;;;;;7.35;3.53;;;;;;;;;;10355900;28;20118;-78
2022/08/18 23:45:48;;;;;;;5.43;3.20;;;;;;;;;;10356829;28;20494;-77
2022/08/18 23:50:50;;;;;;;4.90;2.65;;;;;;;;;;10359212;28;20596;-75
2022/08/18 23:55:53;;;;;;;6.43;2.92;;;;;;;;;;10360837;28;20042;-75
